createdAt,value
2018-03-20T00:00:39.245Z,1.91
2018-03-20T00:03:07.694Z,2.02
2018-03-20T00:05:36.080Z,2.07
2018-03-20T00:08:04.496Z,1.94
2018-03-20T00:10:32.892Z,2.00
2018-03-20T00:13:01.301Z,2.02
2018-03-20T00:15:29.708Z,1.91
2018-03-20T00:17:58.112Z,2.09
2018-03-20T00:20:26.514Z,1.93
2018-03-20T00:22:54.892Z,2.00
2018-03-20T00:25:23.374Z,1.91
2018-03-20T00:27:51.740Z,1.92
2018-03-20T00:30:20.238Z,1.78
2018-03-20T00:32:48.667Z,1.79
2018-03-20T00:35:17.073Z,1.88
2018-03-20T00:37:45.469Z,1.72
2018-03-20T00:40:13.912Z,1.60
2018-03-20T00:42:42.317Z,1.44
2018-03-20T00:45:10.720Z,1.32
2018-03-20T00:47:39.135Z,1.30
2018-03-20T00:50:07.532Z,1.40
2018-03-20T00:52:35.976Z,1.35
2018-03-20T00:55:04.417Z,1.46
2018-03-20T00:57:32.806Z,1.42
2018-03-20T01:00:01.224Z,1.49
2018-03-20T01:02:29.625Z,1.04
2018-03-20T01:04:58.024Z,0.95
2018-03-20T01:07:26.465Z,0.88
2018-03-20T01:09:54.893Z,0.79
2018-03-20T01:12:23.299Z,0.68
2018-03-20T01:14:51.742Z,0.37
2018-03-20T01:17:20.268Z,0.35
2018-03-20T01:19:48.704Z,0.64
2018-03-20T01:22:17.128Z,0.80
2018-03-20T01:24:45.536Z,0.74
2018-03-20T01:27:14.069Z,0.59
2018-03-20T01:29:42.456Z,0.24
2018-03-20T01:32:10.821Z,0.16
2018-03-20T01:34:39.227Z,0.14
2018-03-20T01:37:07.633Z,0.18
2018-03-20T01:39:36.012Z,-0.04
2018-03-20T01:42:04.442Z,-0.04
2018-03-20T01:44:32.912Z,0.15
2018-03-20T01:47:01.290Z,0.29
2018-03-20T01:49:29.765Z,0.45
2018-03-20T01:51:58.165Z,0.38
2018-03-20T01:54:26.552Z,0.62
2018-03-20T01:56:54.974Z,0.64
2018-03-20T01:59:23.340Z,0.65
2018-03-20T02:01:51.764Z,0.90
2018-03-20T02:04:20.143Z,0.87
2018-03-20T02:06:48.589Z,0.88
2018-03-20T02:09:17.004Z,0.59
2018-03-20T02:11:45.365Z,0.37
2018-03-20T02:14:13.783Z,0.33
2018-03-20T02:16:42.149Z,0.32
2018-03-20T02:19:10.692Z,0.14
2018-03-20T02:21:39.259Z,0.53
2018-03-20T02:24:07.652Z,0.61
2018-03-20T02:26:36.380Z,0.70
2018-03-20T02:29:04.736Z,0.79
2018-03-20T02:31:33.200Z,0.75
2018-03-20T02:34:01.624Z,0.72
2018-03-20T02:36:30.030Z,0.75
2018-03-20T02:38:58.407Z,0.79
2018-03-20T02:41:26.837Z,0.74
2018-03-20T02:43:55.387Z,0.70
2018-03-20T02:46:23.800Z,0.73
2018-03-20T02:48:52.268Z,0.87
2018-03-20T02:51:20.674Z,0.84
2018-03-20T02:53:49.116Z,0.87
2018-03-20T02:56:17.472Z,1.01
2018-03-20T02:58:45.855Z,0.94
2018-03-20T03:01:14.313Z,0.99
2018-03-20T03:03:42.756Z,0.93
2018-03-20T03:06:11.200Z,0.94
2018-03-20T03:08:39.621Z,0.91
2018-03-20T03:11:08.030Z,0.92
2018-03-20T03:13:36.422Z,0.93
2018-03-20T03:16:04.840Z,0.93
2018-03-20T03:18:33.257Z,0.92
2018-03-20T03:21:04.029Z,0.95
2018-03-20T03:23:32.384Z,0.97
2018-03-20T03:26:00.752Z,0.97
2018-03-20T03:28:29.161Z,0.97
2018-03-20T03:30:57.569Z,0.86
2018-03-20T03:33:25.956Z,0.82
2018-03-20T03:35:54.356Z,0.73
2018-03-20T03:38:24.115Z,0.83
2018-03-20T03:40:52.633Z,0.81
2018-03-20T03:43:21.251Z,0.78
2018-03-20T03:45:49.712Z,0.67
2018-03-20T03:48:18.140Z,0.90
2018-03-20T03:50:46.628Z,0.91
2018-03-20T03:53:14.976Z,0.87
2018-03-20T03:55:43.407Z,0.94
2018-03-20T03:58:11.854Z,1.00
2018-03-20T04:00:40.276Z,0.96
2018-03-20T04:03:08.716Z,0.93
2018-03-20T04:05:37.072Z,0.80
2018-03-20T04:08:05.496Z,0.73
2018-03-20T04:10:33.932Z,1.02
2018-03-20T04:13:02.346Z,0.81
2018-03-20T04:15:30.788Z,0.85
2018-03-20T04:17:59.207Z,0.97
2018-03-20T04:20:27.672Z,0.99
2018-03-20T04:22:56.132Z,0.83
2018-03-20T04:25:24.592Z,0.67
2018-03-20T04:27:53.005Z,0.68
2018-03-20T04:30:21.436Z,0.74
2018-03-20T04:32:49.889Z,0.89
2018-03-20T04:35:18.262Z,0.66
2018-03-20T04:37:46.681Z,0.98
2018-03-20T04:40:15.104Z,0.85
2018-03-20T04:42:43.573Z,0.81
2018-03-20T04:45:11.972Z,0.54
2018-03-20T04:47:40.381Z,0.54
2018-03-20T04:50:08.778Z,0.53
2018-03-20T04:52:37.185Z,0.50
2018-03-20T04:55:05.765Z,0.44
2018-03-20T04:57:34.185Z,0.40
2018-03-20T05:00:02.671Z,0.41
2018-03-20T05:02:31.121Z,0.45
2018-03-20T05:04:59.555Z,0.44
2018-03-20T05:07:27.965Z,0.43
2018-03-20T05:09:56.326Z,0.49
2018-03-20T05:12:24.729Z,0.49
2018-03-20T05:14:53.144Z,0.45
2018-03-20T05:17:21.597Z,0.52
2018-03-20T05:19:53.549Z,0.59
2018-03-20T05:25:27.463Z,0.59
2018-03-20T05:27:55.883Z,0.67
2018-03-20T05:30:24.388Z,0.72
2018-03-20T05:32:52.834Z,0.75
2018-03-20T05:35:21.280Z,0.71
2018-03-20T05:37:49.639Z,0.78
2018-03-20T05:40:18.097Z,0.84
2018-03-20T05:42:46.712Z,1.00
2018-03-20T05:45:15.091Z,0.93
2018-03-20T05:50:48.468Z,0.77
2018-03-20T05:53:16.967Z,0.73
2018-03-20T05:55:45.484Z,0.60
2018-03-20T05:58:13.852Z,0.65
2018-03-20T06:00:42.220Z,0.72
2018-03-20T06:03:10.663Z,0.62
2018-03-20T06:05:39.124Z,0.69
2018-03-20T06:08:07.552Z,0.28
2018-03-20T06:10:35.977Z,0.50
2018-03-20T06:13:04.423Z,0.57
2018-03-20T06:15:32.843Z,0.66
2018-03-20T06:18:01.217Z,0.57
2018-03-20T06:20:29.621Z,0.60
2018-03-20T06:22:58.004Z,0.68
2018-03-20T06:25:26.451Z,0.70
2018-03-20T06:27:54.962Z,0.86
2018-03-20T06:30:23.421Z,0.89
2018-03-20T06:32:51.848Z,0.93
2018-03-20T06:35:20.268Z,0.88
2018-03-20T06:37:48.658Z,1.00
2018-03-20T06:40:17.000Z,1.03
2018-03-20T06:42:45.426Z,1.27
2018-03-20T06:45:14.414Z,1.16
2018-03-20T06:47:42.803Z,1.21
2018-03-20T06:50:11.220Z,1.12
2018-03-20T06:52:39.679Z,1.06
2018-03-20T06:55:08.064Z,0.91
2018-03-20T06:57:36.485Z,1.04
2018-03-20T07:00:04.965Z,0.98
2018-03-20T07:02:33.398Z,1.13
2018-03-20T07:05:01.784Z,1.24
2018-03-20T07:07:30.161Z,1.18
2018-03-20T07:09:58.680Z,1.28
2018-03-20T07:12:27.054Z,1.10
2018-03-20T07:14:55.449Z,1.39
2018-03-20T07:17:23.972Z,1.50
2018-03-20T07:19:52.444Z,1.65
2018-03-20T07:22:20.872Z,1.75
2018-03-20T07:24:49.268Z,1.82
2018-03-20T07:27:17.785Z,1.89
2018-03-20T07:29:46.379Z,2.32
2018-03-20T07:32:14.936Z,2.56
2018-03-20T07:34:43.339Z,2.74
2018-03-20T07:37:11.697Z,3.31
2018-03-20T07:39:40.182Z,3.62
2018-03-20T07:42:08.573Z,3.80
2018-03-20T07:44:37.027Z,4.18
2018-03-20T07:47:05.401Z,3.48
2018-03-20T07:49:34.000Z,4.12
2018-03-20T07:52:02.456Z,3.80
2018-03-20T07:54:30.877Z,3.31
2018-03-20T07:56:59.287Z,3.66
2018-03-20T07:59:27.685Z,3.10
2018-03-20T08:01:56.049Z,3.10
2018-03-20T08:04:24.443Z,3.30
2018-03-20T08:06:52.814Z,3.28
2018-03-20T08:09:21.240Z,3.47
2018-03-20T08:11:49.688Z,3.09
2018-03-20T08:14:18.068Z,2.98
2018-03-20T08:16:46.499Z,2.97
2018-03-20T08:19:14.880Z,3.08
2018-03-20T08:21:43.315Z,3.04
2018-03-20T08:24:11.693Z,2.86
2018-03-20T08:26:40.069Z,3.32
2018-03-20T08:29:08.474Z,3.93
2018-03-20T08:31:36.975Z,4.30
2018-03-20T08:34:05.380Z,3.90
2018-03-20T08:36:33.750Z,4.26
2018-03-20T08:39:02.184Z,4.50
2018-03-20T08:41:30.573Z,4.83
2018-03-20T08:43:58.989Z,4.91
2018-03-20T08:46:27.384Z,4.94
2018-03-20T08:48:55.859Z,4.70
2018-03-20T08:51:24.252Z,4.66
2018-03-20T08:53:52.651Z,4.91
2018-03-20T08:56:21.053Z,5.00
2018-03-20T08:58:49.454Z,4.33
2018-03-20T09:01:17.880Z,4.37
2018-03-20T09:03:46.269Z,4.56
2018-03-20T09:06:14.687Z,4.53
2018-03-20T09:08:43.045Z,4.29
2018-03-20T09:11:11.440Z,4.66
2018-03-20T09:13:39.825Z,4.63
2018-03-20T09:16:08.177Z,5.18
2018-03-20T09:18:36.568Z,5.35
2018-03-20T09:21:05.170Z,5.28
2018-03-20T09:23:33.564Z,5.15
2018-03-20T09:26:01.937Z,5.70
2018-03-20T09:28:30.344Z,5.77
2018-03-20T09:30:58.702Z,5.62
2018-03-20T09:33:27.048Z,5.31
2018-03-20T09:35:55.444Z,5.52
2018-03-20T09:38:23.788Z,5.59
2018-03-20T09:40:52.201Z,5.27
2018-03-20T09:43:20.556Z,5.49
2018-03-20T09:45:48.972Z,5.87
2018-03-20T09:48:17.497Z,5.63
2018-03-20T09:50:45.940Z,5.34
2018-03-20T09:53:14.284Z,5.21
2018-03-20T09:55:42.664Z,5.09
2018-03-20T09:58:11.028Z,5.12
2018-03-20T10:00:39.519Z,5.29
2018-03-20T10:03:07.888Z,5.62
2018-03-20T10:05:36.233Z,5.54
2018-03-20T10:08:04.674Z,6.42
2018-03-20T10:10:33.175Z,6.72
2018-03-20T10:13:01.581Z,6.27
2018-03-20T10:15:29.924Z,6.17
2018-03-20T10:17:58.365Z,6.53
2018-03-20T10:20:26.729Z,7.00
2018-03-20T10:22:55.117Z,6.65
2018-03-20T10:25:23.561Z,6.49
2018-03-20T10:27:51.913Z,6.77
2018-03-20T10:30:20.308Z,6.80
2018-03-20T10:32:48.663Z,5.88
2018-03-20T10:35:17.073Z,5.93
2018-03-20T10:37:46.689Z,6.28
2018-03-20T10:40:15.076Z,5.88
2018-03-20T10:42:43.464Z,6.39
2018-03-20T10:45:11.849Z,7.21
2018-03-20T10:47:40.310Z,7.38
2018-03-20T10:50:08.848Z,6.56
2018-03-20T10:52:37.234Z,6.44
2018-03-20T10:55:05.788Z,6.57
2018-03-20T10:57:34.189Z,7.45
2018-03-20T11:00:02.595Z,8.08
2018-03-20T11:02:31.708Z,8.53
2018-03-20T11:05:00.113Z,8.73
2018-03-20T11:07:28.591Z,8.30
2018-03-20T11:09:57.006Z,7.44
2018-03-20T11:12:25.372Z,7.13
2018-03-20T11:14:53.811Z,7.22
2018-03-20T11:17:22.199Z,7.30
2018-03-20T11:19:50.600Z,7.54
2018-03-20T11:22:19.037Z,7.59
2018-03-20T11:24:47.411Z,6.89
2018-03-20T11:27:15.844Z,6.45
2018-03-20T11:29:44.360Z,6.47
2018-03-20T11:32:12.795Z,6.36
2018-03-20T11:34:41.202Z,6.69
2018-03-20T11:37:09.597Z,7.26
2018-03-20T11:39:38.019Z,7.84
2018-03-20T11:42:06.377Z,7.22
2018-03-20T11:44:34.824Z,6.30
2018-03-20T11:47:03.171Z,6.72
2018-03-20T11:49:31.523Z,6.86
2018-03-20T11:51:59.985Z,7.79
2018-03-20T11:54:28.376Z,8.28
2018-03-20T11:56:56.742Z,8.13
2018-03-20T11:59:25.092Z,8.18
2018-03-20T12:01:53.497Z,7.81
2018-03-20T12:04:21.864Z,7.49
2018-03-20T12:06:52.692Z,8.21
2018-03-20T12:09:32.892Z,8.05
2018-03-20T12:12:01.293Z,7.95
2018-03-20T12:14:29.679Z,6.99
2018-03-20T12:16:58.096Z,7.17
2018-03-20T12:19:26.481Z,7.68
2018-03-20T12:21:54.866Z,7.29
2018-03-20T12:24:23.248Z,7.08
2018-03-20T12:26:51.650Z,7.63
2018-03-20T12:29:20.069Z,6.92
2018-03-20T12:31:48.528Z,6.75
2018-03-20T12:34:16.906Z,7.25
2018-03-20T12:36:45.435Z,7.52
2018-03-20T12:39:13.799Z,7.99
2018-03-20T12:41:42.248Z,7.79
2018-03-20T12:44:10.655Z,8.17
2018-03-20T12:46:39.107Z,8.48
2018-03-20T12:49:07.461Z,8.31
2018-03-20T12:51:35.822Z,8.63
2018-03-20T12:54:04.212Z,9.00
2018-03-20T12:56:32.621Z,9.07
2018-03-20T12:59:01.036Z,9.10
2018-03-20T13:01:29.473Z,10.50
2018-03-20T13:03:57.900Z,11.01
2018-03-20T13:06:26.284Z,11.74
2018-03-20T13:08:54.708Z,13.30
2018-03-20T13:11:23.136Z,14.33
2018-03-20T13:13:51.524Z,13.86
2018-03-20T13:16:19.921Z,13.64
2018-03-20T13:18:48.310Z,14.58
2018-03-20T13:21:16.714Z,15.50
2018-03-20T13:23:45.085Z,14.23
2018-03-20T13:26:13.693Z,13.57
2018-03-20T13:28:42.082Z,11.59
2018-03-20T13:31:10.628Z,12.86
2018-03-20T13:33:39.053Z,13.98
2018-03-20T13:36:07.452Z,15.48
2018-03-20T13:38:35.900Z,15.42
2018-03-20T13:41:04.278Z,13.10
2018-03-20T13:43:32.693Z,10.94
2018-03-20T13:46:01.106Z,9.98
2018-03-20T13:48:30.898Z,9.41
2018-03-20T13:51:01.791Z,9.34
2018-03-20T13:53:30.326Z,9.82
2018-03-20T13:55:58.956Z,9.65
2018-03-20T13:58:27.389Z,9.90
2018-03-20T14:00:55.906Z,10.64
2018-03-20T14:03:24.328Z,10.41
2018-03-20T14:05:52.675Z,9.79
2018-03-20T14:08:21.146Z,9.49
2018-03-20T14:10:49.545Z,9.26
2018-03-20T14:13:18.013Z,9.17
2018-03-20T14:15:46.411Z,8.89
2018-03-20T14:18:14.837Z,8.11
2018-03-20T14:20:43.288Z,7.85
2018-03-20T14:23:11.680Z,7.87
2018-03-20T14:25:40.083Z,8.16
2018-03-20T14:28:08.460Z,8.70
2018-03-20T14:30:36.856Z,9.47
2018-03-20T14:33:05.240Z,9.40
2018-03-20T14:35:33.632Z,8.21
2018-03-20T14:38:02.058Z,8.06
2018-03-20T14:40:30.557Z,7.96
2018-03-20T14:42:58.956Z,7.90
2018-03-20T14:45:27.447Z,7.61
2018-03-20T14:47:55.862Z,7.61
2018-03-20T14:50:24.279Z,7.67
2018-03-20T14:52:52.713Z,7.42
2018-03-20T14:55:21.152Z,7.89
2018-03-20T14:57:49.613Z,8.02
2018-03-20T15:00:18.029Z,7.70
2018-03-20T15:02:46.507Z,8.36
2018-03-20T15:05:14.885Z,8.51
2018-03-20T15:07:43.671Z,7.91
2018-03-20T15:10:12.562Z,8.34
2018-03-20T15:12:41.008Z,8.00
2018-03-20T15:15:09.721Z,7.84
2018-03-20T15:17:39.178Z,7.63
2018-03-20T15:20:09.172Z,7.69
2018-03-20T15:22:38.106Z,7.74
2018-03-20T15:25:06.562Z,7.74
2018-03-20T15:27:34.998Z,7.86
2018-03-20T15:30:03.601Z,7.76
2018-03-20T15:32:32.612Z,7.76
2018-03-20T15:35:01.050Z,7.68
2018-03-20T15:37:29.475Z,7.57
2018-03-20T15:39:57.872Z,7.59
2018-03-20T15:42:26.274Z,7.92
2018-03-20T15:44:54.676Z,8.23
2018-03-20T15:47:23.113Z,8.05
2018-03-20T15:49:51.505Z,8.18
2018-03-20T15:52:19.965Z,8.44
2018-03-20T15:54:48.328Z,8.45
2018-03-20T15:57:16.710Z,8.11
2018-03-20T15:59:45.129Z,7.83
2018-03-20T16:02:13.513Z,7.68
2018-03-20T16:04:41.884Z,7.94
2018-03-20T16:07:10.327Z,7.54
2018-03-20T16:09:38.722Z,7.27
2018-03-20T16:12:07.153Z,6.93
2018-03-20T16:14:35.537Z,7.09
2018-03-20T16:17:03.960Z,7.06
2018-03-20T16:19:32.389Z,7.65
2018-03-20T16:22:00.960Z,7.35
2018-03-20T16:24:29.370Z,7.13
2018-03-20T16:26:57.920Z,6.86
2018-03-20T16:29:26.364Z,6.73
2018-03-20T16:31:54.729Z,6.79
2018-03-20T16:34:23.195Z,6.74
2018-03-20T16:36:51.643Z,6.82
2018-03-20T16:39:20.068Z,6.82
2018-03-20T16:41:48.529Z,6.77
2018-03-20T16:44:16.923Z,6.80
2018-03-20T16:46:45.354Z,6.69
2018-03-20T16:49:13.796Z,6.64
2018-03-20T16:51:42.193Z,6.45
2018-03-20T16:54:10.736Z,6.19
2018-03-20T16:56:39.124Z,6.26
2018-03-20T16:59:07.600Z,6.30
2018-03-20T17:01:36.002Z,6.27
2018-03-20T17:04:04.403Z,6.66
2018-03-20T17:06:32.831Z,6.77
2018-03-20T17:09:01.249Z,6.86
2018-03-20T17:11:29.648Z,6.97
2018-03-20T17:13:58.120Z,6.77
2018-03-20T17:16:26.505Z,6.74
2018-03-20T17:18:54.865Z,6.70
2018-03-20T17:21:23.294Z,6.72
2018-03-20T17:23:51.697Z,6.69
2018-03-20T17:26:20.130Z,6.55
2018-03-20T17:28:48.672Z,6.79
2018-03-20T17:31:17.167Z,6.48
2018-03-20T17:33:45.712Z,6.53
2018-03-20T17:36:14.283Z,6.56
2018-03-20T17:38:42.713Z,6.68
2018-03-20T17:41:11.108Z,6.60
2018-03-20T17:43:39.525Z,6.47
2018-03-20T17:46:07.953Z,6.52
2018-03-20T17:48:36.392Z,6.64
2018-03-20T17:51:04.824Z,6.72
2018-03-20T17:53:33.269Z,6.65
2018-03-20T17:56:01.665Z,6.53
2018-03-20T17:58:30.077Z,6.39
2018-03-20T18:00:58.596Z,5.76
2018-03-20T18:03:27.042Z,5.62
2018-03-20T18:05:55.519Z,5.55
2018-03-20T18:08:23.935Z,5.48
2018-03-20T18:10:52.325Z,5.47
2018-03-20T18:13:20.765Z,5.39
2018-03-20T18:15:49.147Z,5.41
2018-03-20T18:18:17.766Z,5.55
2018-03-20T18:20:46.145Z,5.65
2018-03-20T18:23:14.586Z,5.51
2018-03-20T18:25:43.010Z,5.39
2018-03-20T18:28:11.461Z,5.66
2018-03-20T18:30:39.876Z,5.71
2018-03-20T18:33:08.283Z,5.60
2018-03-20T18:35:36.719Z,5.58
2018-03-20T18:38:05.143Z,5.72
2018-03-20T18:40:33.571Z,5.59
2018-03-20T18:43:02.020Z,5.60
2018-03-20T18:45:30.536Z,5.25
2018-03-20T18:47:58.978Z,5.36
2018-03-20T18:50:27.425Z,5.38
2018-03-20T18:52:55.889Z,5.42
2018-03-20T18:55:24.416Z,5.38
2018-03-20T18:57:52.899Z,5.46
2018-03-20T19:00:21.315Z,5.50
2018-03-20T19:02:49.696Z,5.33
2018-03-20T19:05:18.120Z,5.30
2018-03-20T19:07:46.547Z,5.06
2018-03-20T19:10:14.991Z,4.89
2018-03-20T19:12:43.420Z,4.88
2018-03-20T19:15:11.857Z,5.22
2018-03-20T19:17:40.233Z,5.33
2018-03-20T19:20:08.675Z,5.44
2018-03-20T19:22:37.104Z,5.30
2018-03-20T19:25:05.513Z,5.19
2018-03-20T19:27:34.016Z,5.32
2018-03-20T19:30:02.512Z,5.23
2018-03-20T19:32:31.044Z,5.27
2018-03-20T19:34:59.413Z,5.15
2018-03-20T19:37:27.832Z,5.29
2018-03-20T19:39:56.313Z,5.40
2018-03-20T19:42:24.820Z,5.22
2018-03-20T19:44:53.231Z,4.89
2018-03-20T19:47:21.622Z,4.80
2018-03-20T19:49:50.037Z,4.81
2018-03-20T19:52:18.403Z,4.69
2018-03-20T19:54:46.850Z,5.07
2018-03-20T19:57:15.231Z,5.11
2018-03-20T19:59:43.665Z,5.00
2018-03-20T20:02:12.074Z,5.02
2018-03-20T20:04:40.504Z,4.77
2018-03-20T20:07:08.885Z,4.67
2018-03-20T20:09:37.256Z,4.63
2018-03-20T20:12:05.637Z,4.89
2018-03-20T20:14:34.227Z,4.94
2018-03-20T20:17:02.552Z,4.82
2018-03-20T20:19:30.985Z,4.94
2018-03-20T20:21:59.409Z,4.94
2018-03-20T20:24:27.837Z,4.97
2018-03-20T20:26:56.253Z,5.09
2018-03-20T20:29:24.638Z,5.12
2018-03-20T20:31:53.033Z,5.05
2018-03-20T20:34:21.404Z,4.92
2018-03-20T20:36:49.821Z,4.87
2018-03-20T20:39:18.216Z,4.88
2018-03-20T20:41:46.654Z,4.54
2018-03-20T20:44:15.181Z,4.36
2018-03-20T20:46:43.575Z,4.61
2018-03-20T20:49:11.987Z,4.70
2018-03-20T20:51:40.437Z,4.70
2018-03-20T20:54:09.047Z,4.62
2018-03-20T20:56:37.500Z,4.79
2018-03-20T20:59:05.873Z,4.47
2018-03-20T21:01:34.298Z,4.77
2018-03-20T21:04:02.683Z,4.76
2018-03-20T21:06:31.173Z,4.81
2018-03-20T21:08:59.672Z,4.56
2018-03-20T21:11:28.103Z,4.45
2018-03-20T21:13:56.478Z,4.69
2018-03-20T21:16:24.901Z,4.66
2018-03-20T21:18:53.316Z,4.81
2018-03-20T21:21:21.798Z,4.70
2018-03-20T21:23:50.285Z,4.65
2018-03-20T21:26:18.689Z,4.81
2018-03-20T21:28:47.083Z,4.88
2018-03-20T21:31:15.501Z,4.79
2018-03-20T21:33:43.952Z,4.81
2018-03-20T21:36:12.396Z,4.91
2018-03-20T21:38:40.794Z,4.91
2018-03-20T21:41:09.170Z,4.89
2018-03-20T21:43:37.630Z,4.67
2018-03-20T21:46:06.013Z,4.92
2018-03-20T21:48:34.427Z,4.76
2018-03-20T21:51:02.829Z,4.71
2018-03-20T21:53:31.212Z,4.72
2018-03-20T21:55:59.630Z,4.65
2018-03-20T21:58:28.016Z,4.55
2018-03-20T22:00:56.417Z,4.71
2018-03-20T22:03:24.864Z,4.95
2018-03-20T22:05:53.283Z,4.87
2018-03-20T22:08:22.174Z,5.01
2018-03-20T22:10:50.612Z,5.07
2018-03-20T22:13:19.024Z,4.93
2018-03-20T22:15:47.414Z,4.60
2018-03-20T22:18:15.818Z,4.69
2018-03-20T22:20:44.367Z,5.01
2018-03-20T22:23:12.746Z,4.99
2018-03-20T22:25:41.137Z,4.72
2018-03-20T22:28:09.528Z,4.96
2018-03-20T22:30:37.994Z,4.96
2018-03-20T22:33:06.383Z,5.05
2018-03-20T22:35:34.908Z,4.88
2018-03-20T22:38:03.446Z,5.01
2018-03-20T22:40:31.846Z,4.97
2018-03-20T22:43:00.264Z,5.01
2018-03-20T22:45:28.631Z,5.02
2018-03-20T22:47:56.997Z,4.98
2018-03-20T22:50:25.382Z,4.91
2018-03-20T22:52:53.805Z,5.06
2018-03-20T22:55:22.218Z,5.22
2018-03-20T22:57:50.597Z,5.13
2018-03-20T23:00:29.461Z,5.00
2018-03-20T23:02:57.830Z,4.99
2018-03-20T23:05:26.256Z,5.00
2018-03-20T23:10:52.756Z,4.84
2018-03-20T23:13:21.125Z,4.79
2018-03-20T23:15:49.503Z,4.90
2018-03-20T23:18:17.963Z,4.95
2018-03-20T23:20:46.328Z,4.98
2018-03-20T23:23:14.691Z,5.20
2018-03-20T23:25:43.116Z,5.32
2018-03-20T23:28:11.545Z,5.36
2018-03-20T23:30:39.988Z,5.15
2018-03-20T23:33:08.416Z,5.21
2018-03-20T23:35:36.833Z,5.29
2018-03-20T23:38:05.361Z,5.41
2018-03-20T23:40:33.760Z,5.47
2018-03-20T23:43:02.140Z,5.34
2018-03-20T23:45:30.542Z,5.23
2018-03-20T23:47:58.893Z,5.26
2018-03-20T23:50:27.317Z,5.38
2018-03-20T23:52:55.669Z,4.99
2018-03-20T23:55:24.089Z,4.93
2018-03-20T23:57:52.485Z,5.23
